Time;durP1;ratioP1;P1;durP2;ratioP2;P2;SDS_P1;SDS_P2;PMS_P1;PMS_P2;Temp;Humidity;BMP_temperature;BMP_pressure;BME280_temperature;BME280_humidity;BME280_pressure;Samples;Min_cycle;Max_cycle;Signal;HPM_P1;HPM_P2
2022/10/29 00:01:51;;;;;;;7.25;4.22;;;13.10;99.90;;;;;;4921496;28;87928;-29
2022/10/29 00:04:16;;;;;;;14.55;5.50;;;13.10;99.90;;;;;;4921458;28;87813;-30
2022/10/29 00:06:42;;;;;;;10.85;5.18;;;13.10;99.90;;;;;;4921887;28;90188;-31
2022/10/29 00:09:09;;;;;;;8.15;3.78;;;13.00;99.90;;;;;;4921022;28;89958;-30
2022/10/29 00:11:35;;;;;;;14.87;5.23;;;13.00;99.90;;;;;;4922072;28;89651;-33
2022/10/29 00:14:01;;;;;;;23.90;5.80;;;13.00;99.90;;;;;;4922732;28;88527;-28
2022/10/29 00:16:29;;;;;;;21.63;6.47;;;13.10;99.90;;;;;;4921358;28;90111;-29
2022/10/29 00:18:56;;;;;;;15.98;5.70;;;13.00;99.90;;;;;;4921020;28;89534;-32
2022/10/29 00:21:24;;;;;;;20.30;5.53;;;13.00;99.90;;;;;;4921860;28;88880;-29
2022/10/29 00:23:50;;;;;;;12.10;5.13;;;13.00;99.90;;;;;;4922043;28;88055;-29
2022/10/29 00:26:19;;;;;;;11.02;5.75;;;13.00;99.90;;;;;;4921573;28;89209;-32
2022/10/29 00:28:45;;;;;;;13.32;6.63;;;13.00;99.90;;;;;;4920406;28;89911;-30
2022/10/29 00:31:13;;;;;;;11.90;6.47;;;13.00;99.90;;;;;;4921718;28;88566;-27
2022/10/29 00:33:39;;;;;;;12.90;5.32;;;13.00;99.90;;;;;;4921741;28;89553;-27
2022/10/29 00:36:09;;;;;;;13.32;6.07;;;13.00;99.90;;;;;;4921087;28;89916;-30
2022/10/29 00:38:34;;;;;;;18.67;5.65;;;12.90;99.90;;;;;;4921512;28;88457;-29
2022/10/29 00:41:01;;;;;;;12.57;4.93;;;12.90;99.90;;;;;;4921220;28;89700;-32
2022/10/29 00:43:27;;;;;;;11.90;7.45;;;12.90;99.90;;;;;;4921162;28;88764;-28
2022/10/29 00:46:03;;;;;;;12.38;6.13;;;12.90;99.90;;;;;;4920657;28;90392;-29
2022/10/29 00:48:33;;;;;;;9.90;5.32;;;12.90;99.90;;;;;;4921121;28;91361;-30
2022/10/29 00:51:02;;;;;;;21.02;6.10;;;12.90;99.90;;;;;;4921707;28;87775;-30
2022/10/29 00:53:31;;;;;;;6.53;4.90;;;12.90;99.90;;;;;;4920889;28;90202;-29
2022/10/29 00:55:58;;;;;;;11.05;4.65;;;12.80;99.90;;;;;;4921620;28;90030;-29
2022/10/29 00:58:24;;;;;;;14.18;5.63;;;12.80;99.90;;;;;;4920524;28;89854;-31
2022/10/29 01:00:49;;;;;;;11.73;5.80;;;12.80;99.90;;;;;;4923192;28;87942;-31
2022/10/29 01:03:15;;;;;;;11.23;5.68;;;12.80;99.90;;;;;;4924973;28;90274;-31
2022/10/29 01:05:42;;;;;;;7.05;4.97;;;12.70;99.90;;;;;;4923230;28;90174;-28
2022/10/29 01:08:09;;;;;;;16.38;5.47;;;12.70;99.90;;;;;;4924277;28;90294;-32
2022/10/29 01:11:01;;;;;;;10.38;5.85;;;12.70;99.90;;;;;;4924756;28;87596;-27
2022/10/29 01:13:50;;;;;;;12.50;5.32;;;12.60;99.90;;;;;;4924616;28;89821;-29
2022/10/29 01:16:25;;;;;;;11.75;4.80;;;12.60;99.90;;;;;;4921275;28;90325;-32
2022/10/29 01:19:09;;;;;;;9.77;5.28;;;12.50;99.90;;;;;;4923844;28;89752;-31
2022/10/29 01:21:41;;;;;;;8.43;5.47;;;12.50;99.90;;;;;;4924072;28;89491;-31
2022/10/29 01:24:15;;;;;;;13.77;4.97;;;12.40;99.90;;;;;;4924573;28;87549;-30
2022/10/29 01:26:47;;;;;;;13.15;5.15;;;12.40;99.90;;;;;;4924188;28;90427;-30
2022/10/29 01:29:34;;;;;;;9.43;5.28;;;12.40;99.90;;;;;;4923711;28;89600;-30
2022/10/29 01:32:15;;;;;;;7.65;5.35;;;12.40;99.90;;;;;;4923786;28;89468;-31
2022/10/29 01:34:56;;;;;;;13.93;5.72;;;12.40;99.90;;;;;;4921564;28;87556;-30
2022/10/29 01:37:37;;;;;;;12.65;6.00;;;12.30;99.90;;;;;;4923643;28;90678;-29
2022/10/29 01:40:14;;;;;;;16.77;7.20;;;12.30;99.90;;;;;;4923525;28;89806;-32
2022/10/29 01:42:48;;;;;;;12.73;6.20;;;12.30;99.90;;;;;;4923803;28;88291;-32
2022/10/29 01:45:29;;;;;;;13.68;6.20;;;12.30;99.90;;;;;;4906040;28;89019;-32
2022/10/29 01:48:06;;;;;;;12.23;7.15;;;12.20;99.90;;;;;;4923739;28;90556;-32
2022/10/29 01:50:35;;;;;;;16.35;7.57;;;12.20;99.90;;;;;;4923642;28;90196;-31
2022/10/29 01:53:03;;;;;;;15.85;6.43;;;12.20;99.90;;;;;;4923915;28;87622;-27
2022/10/29 01:55:34;;;;;;;20.90;9.23;;;12.20;99.90;;;;;;4924352;28;89920;-29
2022/10/29 01:58:02;;;;;;;16.73;7.18;;;12.20;99.90;;;;;;4923573;28;89930;-30
2022/10/29 02:00:44;;;;;;;10.60;6.10;;;12.20;99.90;;;;;;4923069;28;89980;-33
2022/10/29 02:03:41;;;;;;;18.27;7.57;;;12.20;99.90;;;;;;4924129;28;89412;-28
2022/10/29 02:06:38;;;;;;;12.20;7.03;;;12.20;99.90;;;;;;4911194;28;88112;-30
2022/10/29 02:09:15;;;;;;;17.35;7.47;;;12.20;99.90;;;;;;4922812;28;90675;-31
2022/10/29 02:11:57;;;;;;;16.73;8.50;;;12.20;99.90;;;;;;4923314;28;89773;-27
2022/10/29 02:14:32;;;;;;;15.43;8.10;;;12.20;99.90;;;;;;4923416;28;88623;-29
2022/10/29 02:17:00;;;;;;;20.95;9.93;;;12.20;99.90;;;;;;4923974;28;87606;-29
2022/10/29 02:19:34;;;;;;;13.82;9.00;;;12.20;99.90;;;;;;4923037;28;90381;-31
2022/10/29 02:22:00;;;;;;;17.10;9.55;;;12.20;99.90;;;;;;4922794;28;89758;-33
2022/10/29 02:24:26;;;;;;;14.68;8.75;;;12.20;99.90;;;;;;4922970;28;89482;-30
2022/10/29 02:26:52;;;;;;;19.17;9.00;;;12.20;99.90;;;;;;4923006;28;87801;-30
2022/10/29 02:29:18;;;;;;;17.13;8.52;;;12.20;99.90;;;;;;4922906;28;89118;-29
2022/10/29 02:31:44;;;;;;;13.68;8.20;;;12.20;99.90;;;;;;4922349;28;89587;-30
2022/10/29 02:34:10;;;;;;;26.13;10.02;;;12.10;99.90;;;;;;4922782;28;89728;-30
2022/10/29 02:36:35;;;;;;;14.60;8.50;;;12.10;99.90;;;;;;4921869;28;89591;-29
2022/10/29 02:39:01;;;;;;;16.90;9.27;;;12.10;99.90;;;;;;4922392;28;90254;-32
2022/10/29 02:41:26;;;;;;;17.30;8.35;;;12.00;99.90;;;;;;4923537;28;89657;-29
2022/10/29 02:43:52;;;;;;;12.18;8.70;;;12.00;99.90;;;;;;4922701;28;88429;-29
2022/10/29 02:46:20;;;;;;;19.17;10.60;;;12.00;99.90;;;;;;4923444;28;88832;-30
2022/10/29 02:48:46;;;;;;;10.10;8.77;;;12.00;99.90;;;;;;4921479;28;90328;-29
2022/10/29 02:51:12;;;;;;;17.05;9.48;;;12.00;99.90;;;;;;4922440;28;90644;-31
2022/10/29 02:53:38;;;;;;;20.40;9.90;;;12.00;99.90;;;;;;4923038;28;87649;-29
2022/10/29 02:56:05;;;;;;;14.90;8.77;;;11.90;99.90;;;;;;4922510;28;88364;-30
2022/10/29 02:58:30;;;;;;;11.73;9.07;;;11.90;99.90;;;;;;4922188;28;89017;-29
2022/10/29 03:00:56;;;;;;;21.13;9.70;;;11.90;99.90;;;;;;4919861;28;90805;-30
2022/10/29 03:03:23;;;;;;;15.55;9.57;;;11.90;99.90;;;;;;4922228;28;88311;-29
2022/10/29 03:05:49;;;;;;;18.05;10.10;;;11.90;99.90;;;;;;4922861;28;89392;-30
2022/10/29 03:08:14;;;;;;;20.95;10.15;;;11.90;99.90;;;;;;4921611;28;90236;-30
2022/10/29 03:10:40;;;;;;;15.68;9.40;;;11.90;99.90;;;;;;4920452;28;90008;-30
2022/10/29 03:13:06;;;;;;;13.10;9.30;;;11.90;99.90;;;;;;4922647;28;89893;-28
2022/10/29 03:15:31;;;;;;;19.52;11.60;;;11.90;99.90;;;;;;4921842;28;89202;-30
2022/10/29 03:17:57;;;;;;;19.08;10.15;;;11.90;99.90;;;;;;4921093;28;90214;-33
2022/10/29 03:20:22;;;;;;;15.55;9.82;;;11.90;99.90;;;;;;4921290;28;89749;-28
2022/10/29 03:22:48;;;;;;;23.58;9.65;;;12.00;99.90;;;;;;4921012;28;88295;-32
2022/10/29 03:25:13;;;;;;;22.25;11.93;;;12.00;99.90;;;;;;4922789;28;89532;-28
2022/10/29 03:27:41;;;;;;;20.23;12.07;;;12.00;99.90;;;;;;4921291;28;91224;-29
2022/10/29 03:30:11;;;;;;;24.40;14.27;;;12.00;99.90;;;;;;4921666;28;88292;-31
2022/10/29 03:32:44;;;;;;;25.80;11.60;;;12.00;99.90;;;;;;4921149;28;89731;-29
2022/10/29 03:35:12;;;;;;;19.52;11.25;;;11.90;99.90;;;;;;4919700;28;88486;-29
2022/10/29 03:37:38;;;;;;;24.92;12.23;;;12.00;99.90;;;;;;4920440;28;89302;-28
2022/10/29 03:40:04;;;;;;;27.33;12.32;;;12.00;99.90;;;;;;4920758;28;89936;-32
2022/10/29 03:42:30;;;;;;;18.08;12.52;;;12.00;99.90;;;;;;4921649;28;89241;-28
2022/10/29 03:44:59;;;;;;;14.82;10.13;;;12.00;99.90;;;;;;4920456;28;89096;-29
2022/10/29 03:47:25;;;;;;;16.05;11.32;;;12.00;99.90;;;;;;4921377;28;90153;-29
2022/10/29 03:49:51;;;;;;;24.38;12.63;;;12.00;99.90;;;;;;4920957;28;89558;-31
2022/10/29 03:52:17;;;;;;;13.95;10.73;;;12.00;99.90;;;;;;4921265;28;90110;-30
2022/10/29 03:54:42;;;;;;;18.42;12.95;;;12.00;99.90;;;;;;4921138;28;89391;-31
2022/10/29 03:57:08;;;;;;;12.65;10.93;;;12.00;99.90;;;;;;4919913;28;90231;-29
2022/10/29 03:59:33;;;;;;;15.85;11.48;;;12.00;99.90;;;;;;4920645;28;89666;-32
2022/10/29 04:01:59;;;;;;;21.52;11.23;;;12.00;99.90;;;;;;4920681;28;89581;-30
2022/10/29 04:04:25;;;;;;;12.43;11.13;;;12.00;99.90;;;;;;4920350;28;89010;-33
2022/10/29 04:06:50;;;;;;;12.13;10.32;;;12.00;99.90;;;;;;4920841;28;90261;-30
2022/10/29 04:09:16;;;;;;;12.52;10.25;;;12.00;99.90;;;;;;4920316;28;89677;-29
2022/10/29 04:11:41;;;;;;;15.73;11.55;;;12.00;99.90;;;;;;4920839;28;90040;-28
2022/10/29 04:14:07;;;;;;;14.63;11.57;;;11.90;99.90;;;;;;4920432;28;89730;-29
2022/10/29 04:16:33;;;;;;;19.65;10.43;;;11.90;99.90;;;;;;4920119;28;90041;-33
2022/10/29 04:18:58;;;;;;;15.63;14.10;;;11.90;99.90;;;;;;4920293;28;89696;-31
2022/10/29 04:21:24;;;;;;;14.70;12.15;;;11.90;99.90;;;;;;4920349;28;90085;-32
2022/10/29 04:23:50;;;;;;;16.52;12.75;;;11.90;99.90;;;;;;4920748;28;90130;-28
2022/10/29 04:26:16;;;;;;;16.27;11.13;;;12.00;99.90;;;;;;4918994;28;90289;-32
2022/10/29 04:28:41;;;;;;;16.25;12.27;;;12.00;99.90;;;;;;4920438;28;89693;-28
2022/10/29 04:31:10;;;;;;;29.30;12.45;;;12.00;99.90;;;;;;4920648;28;88468;-28
2022/10/29 04:33:36;;;;;;;16.33;11.82;;;12.00;99.90;;;;;;4920300;28;88096;-28
2022/10/29 04:36:02;;;;;;;6.93;5.55;;;12.00;99.90;;;;;;4965204;22;90571;-32
2022/10/29 04:38:27;;;;;;;10.88;5.75;;;11.90;99.90;;;;;;4944195;28;91178;-28
2022/10/29 04:40:57;;;;;;;12.77;9.13;;;11.70;99.90;;;;;;4943417;28;89822;-29
2022/10/29 04:43:23;;;;;;;14.65;11.10;;;11.60;99.90;;;;;;4943829;28;88190;-28
2022/10/29 04:45:53;;;;;;;18.80;12.07;;;11.70;99.90;;;;;;4942861;28;90080;-29
2022/10/29 04:48:19;;;;;;;19.70;12.77;;;11.80;99.90;;;;;;4942944;28;89504;-30
2022/10/29 04:50:44;;;;;;;14.50;12.30;;;11.80;99.90;;;;;;4942740;28;89854;-31
2022/10/29 04:53:10;;;;;;;36.42;16.27;;;11.90;99.90;;;;;;4942438;28;89743;-32
2022/10/29 04:55:37;;;;;;;24.92;13.90;;;12.00;99.90;;;;;;4942909;28;90293;-30
2022/10/29 04:58:04;;;;;;;30.38;14.82;;;12.10;99.90;;;;;;4942552;28;89725;-32
2022/10/29 05:00:30;;;;;;;27.25;14.30;;;12.20;99.90;;;;;;4942851;28;89789;-29
2022/10/29 05:02:55;;;;;;;37.97;18.33;;;12.20;99.90;;;;;;4943222;28;87744;-29
2022/10/29 05:05:21;;;;;;;29.77;13.82;;;12.30;99.90;;;;;;4942481;28;90375;-30
2022/10/29 05:07:47;;;;;;;36.25;16.95;;;12.30;99.90;;;;;;4942710;28;89517;-29
2022/10/29 05:10:13;;;;;;;20.50;10.50;;;12.40;99.90;;;;;;4942383;28;87564;-29
2022/10/29 05:12:39;;;;;;;11.80;7.45;;;12.30;99.90;;;;;;4942921;28;90001;-31
2022/10/29 05:15:05;;;;;;;11.75;7.43;;;12.20;99.90;;;;;;4943641;28;90003;-32
2022/10/29 05:17:35;;;;;;;20.17;7.72;;;12.10;99.90;;;;;;4942583;28;89294;-30
2022/10/29 05:20:00;;;;;;;16.20;7.55;;;12.00;99.90;;;;;;4943037;28;88378;-29
2022/10/29 05:22:26;;;;;;;14.65;8.80;;;11.90;99.90;;;;;;4944353;28;89677;-29
2022/10/29 05:24:51;;;;;;;21.38;9.57;;;11.80;99.90;;;;;;4942863;28;91151;-30
2022/10/29 05:27:17;;;;;;;17.60;10.05;;;11.80;99.90;;;;;;4944083;28;90090;-29
2022/10/29 05:29:43;;;;;;;19.02;7.82;;;11.80;99.90;;;;;;4941831;28;87658;-30
2022/10/29 05:32:08;;;;;;;12.85;8.25;;;11.80;99.90;;;;;;4943363;28;87860;-31
2022/10/29 05:34:34;;;;;;;13.70;8.25;;;11.80;99.90;;;;;;4943450;28;93368;-30
2022/10/29 05:36:59;;;;;;;17.73;9.98;;;11.80;99.90;;;;;;4942169;28;89460;-29
2022/10/29 05:39:25;;;;;;;19.98;10.60;;;11.80;99.90;;;;;;4942526;28;88182;-31
2022/10/29 05:41:50;;;;;;;22.17;9.82;;;11.80;99.90;;;;;;4941452;28;90414;-28
2022/10/29 05:44:16;;;;;;;19.60;10.27;;;11.90;99.90;;;;;;4943127;28;90087;-30
2022/10/29 05:46:41;;;;;;;18.02;11.10;;;11.90;99.90;;;;;;4941013;28;90429;-32
2022/10/29 05:49:07;;;;;;;19.38;11.43;;;11.90;99.90;;;;;;4942554;28;89383;-29
2022/10/29 05:51:32;;;;;;;23.83;9.57;;;11.90;99.90;;;;;;4942650;28;88493;-29
2022/10/29 05:53:58;;;;;;;25.92;9.82;;;11.90;99.90;;;;;;4942456;28;89224;-30
2022/10/29 05:56:24;;;;;;;17.30;10.35;;;11.90;99.90;;;;;;4942786;28;89713;-27
2022/10/29 05:58:51;;;;;;;22.48;9.35;;;11.80;99.90;;;;;;4941300;28;89420;-31
2022/10/29 06:01:18;;;;;;;13.85;9.57;;;11.80;99.90;;;;;;4943042;28;88747;-32
2022/10/29 06:03:44;;;;;;;18.75;10.48;;;11.80;99.90;;;;;;4942584;28;90233;-30
2022/10/29 06:06:10;;;;;;;17.00;9.30;;;11.80;99.90;;;;;;4941847;28;89790;-29
2022/10/29 06:08:35;;;;;;;18.90;9.43;;;11.80;99.90;;;;;;4942741;28;89980;-33
2022/10/29 06:11:02;;;;;;;15.80;8.30;;;11.80;99.90;;;;;;4942659;28;88925;-29
2022/10/29 06:13:28;;;;;;;15.45;9.55;;;11.80;99.90;;;;;;4942537;28;89461;-28
2022/10/29 06:15:57;;;;;;;21.88;9.48;;;11.80;99.90;;;;;;4942631;28;89976;-29
2022/10/29 06:18:23;;;;;;;18.85;10.32;;;11.80;99.90;;;;;;4942982;28;88964;-31
2022/10/29 06:20:48;;;;;;;19.35;11.13;;;11.80;99.90;;;;;;4940849;28;87718;-32
2022/10/29 06:23:14;;;;;;;19.33;10.98;;;11.80;99.90;;;;;;4942315;28;89916;-30
2022/10/29 06:25:40;;;;;;;17.63;12.18;;;11.80;99.90;;;;;;4941248;28;90022;-31
2022/10/29 06:28:08;;;;;;;16.60;11.10;;;11.80;99.90;;;;;;4941582;28;87546;-32
2022/10/29 06:30:34;;;;;;;;;;;11.80;99.90;;;;;;4942196;28;89413;-33
2022/10/29 06:33:01;;;;;;;17.95;11.40;;;11.90;99.90;;;;;;4941733;28;91646;-30
2022/10/29 06:35:27;;;;;;;18.80;11.40;;;11.90;99.90;;;;;;4940685;28;89875;-28
2022/10/29 06:37:53;;;;;;;17.50;10.93;;;11.90;99.90;;;;;;4941000;28;87922;-30
2022/10/29 06:40:18;;;;;;;19.42;11.52;;;11.90;99.90;;;;;;4941404;28;87923;-28
2022/10/29 06:42:44;;;;;;;23.33;14.15;;;11.90;99.90;;;;;;4940812;28;89671;-30
2022/10/29 06:45:11;;;;;;;31.08;15.93;;;11.90;99.90;;;;;;4941406;28;89198;-28
2022/10/29 06:47:44;;;;;;;18.23;11.77;;;11.90;99.90;;;;;;4940905;28;89210;-31
2022/10/29 06:50:11;;;;;;;25.60;12.85;;;12.00;99.90;;;;;;4940514;28;88820;-28
2022/10/29 06:52:37;;;;;;;28.88;13.32;;;11.90;99.90;;;;;;4941281;28;91301;-31
2022/10/29 06:55:05;;;;;;;26.65;13.90;;;11.90;99.90;;;;;;4941120;28;89057;-31
2022/10/29 06:57:30;;;;;;;46.35;14.20;;;11.80;99.90;;;;;;4940668;28;89734;-28
2022/10/29 06:59:56;;;;;;;30.35;14.40;;;11.90;99.90;;;;;;4940162;28;89233;-31
2022/10/29 07:02:22;;;;;;;29.83;12.90;;;11.80;99.90;;;;;;4940993;28;90530;-29
2022/10/29 07:04:48;;;;;;;24.40;12.48;;;11.80;99.90;;;;;;4940950;28;88611;-31
2022/10/29 07:07:14;;;;;;;27.02;14.38;;;11.80;99.90;;;;;;4940517;28;88959;-29
2022/10/29 07:09:41;;;;;;;22.75;12.65;;;11.80;99.90;;;;;;4941104;28;89273;-30
2022/10/29 07:12:07;;;;;;;29.13;16.63;;;11.80;99.90;;;;;;4940635;28;92024;-29
2022/10/29 07:14:33;;;;;;;25.98;15.88;;;11.80;99.90;;;;;;4939947;28;90410;-29
2022/10/29 07:16:59;;;;;;;30.40;18.02;;;11.90;99.90;;;;;;4940591;28;88965;-28
2022/10/29 07:19:24;;;;;;;40.97;17.05;;;11.90;99.90;;;;;;4938293;28;89919;-30
2022/10/29 07:21:50;;;;;;;35.08;17.40;;;12.00;99.90;;;;;;4940391;28;90532;-32
2022/10/29 07:24:18;;;;;;;32.70;17.90;;;12.00;99.90;;;;;;4938505;28;89552;-27
2022/10/29 07:26:44;;;;;;;;;;;12.00;99.90;;;;;;4940376;28;89956;-30
2022/10/29 07:29:09;;;;;;;21.13;14.65;;;12.10;99.90;;;;;;4942453;28;89939;-28
2022/10/29 07:31:35;;;;;;;40.85;17.10;;;12.10;99.90;;;;;;4939998;28;90145;-28
2022/10/29 07:34:01;;;;;;;26.15;16.67;;;12.20;99.90;;;;;;4939835;28;90210;-31
2022/10/29 07:36:29;;;;;;;35.50;17.90;;;12.20;99.90;;;;;;4940402;28;88968;-29
2022/10/29 07:38:55;;;;;;;20.33;15.45;;;12.20;99.90;;;;;;4938976;28;87691;-31
2022/10/29 07:41:21;;;;;;;24.27;16.83;;;12.20;99.90;;;;;;4940665;28;90798;-28
2022/10/29 07:43:46;;;;;;;26.35;17.73;;;12.30;99.90;;;;;;4940261;28;90263;-31
2022/10/29 07:46:12;;;;;;;33.15;16.50;;;12.30;99.90;;;;;;4939426;28;89462;-31
2022/10/29 07:48:38;;;;;;;25.60;17.20;;;12.30;99.90;;;;;;4940184;28;87683;-30
2022/10/29 07:51:03;;;;;;;24.77;15.77;;;12.30;99.90;;;;;;4939902;28;90165;-31
2022/10/29 07:53:32;;;;;;;19.70;14.45;;;12.40;99.90;;;;;;4941078;28;89860;-29
2022/10/29 07:55:58;;;;;;;20.50;16.08;;;12.40;99.90;;;;;;4940443;28;88143;-27
2022/10/29 07:58:24;;;;;;;22.70;16.23;;;12.40;99.90;;;;;;4939811;28;89035;-30
2022/10/29 08:00:50;;;;;;;22.60;14.88;;;12.40;99.90;;;;;;4938398;28;90250;-28
2022/10/29 08:03:15;;;;;;;18.33;15.93;;;12.50;99.90;;;;;;4943425;28;88957;-31
2022/10/29 08:05:41;;;;;;;19.00;15.38;;;12.50;99.90;;;;;;4947424;28;88400;-31
2022/10/29 08:08:07;;;;;;;21.20;15.88;;;12.50;99.90;;;;;;4940902;28;88349;-28
2022/10/29 08:10:34;;;;;;;22.08;15.18;;;12.50;99.90;;;;;;4942357;28;89322;-29
2022/10/29 08:13:02;;;;;;;16.25;13.98;;;12.60;99.90;;;;;;4942469;28;88668;-29
2022/10/29 08:15:29;;;;;;;17.50;15.57;;;12.60;99.90;;;;;;4943731;28;89000;-29
2022/10/29 08:17:56;;;;;;;18.30;16.25;;;12.70;99.90;;;;;;4943330;28;89706;-32
2022/10/29 08:20:23;;;;;;;20.88;15.88;;;12.70;99.90;;;;;;4943880;28;91127;-29
2022/10/29 08:22:49;;;;;;;18.63;16.73;;;12.80;99.90;;;;;;4942855;28;89632;-31
2022/10/29 08:25:15;;;;;;;19.65;16.75;;;12.90;99.90;;;;;;4943318;28;90241;-30
2022/10/29 08:27:41;;;;;;;18.30;14.82;;;12.90;99.90;;;;;;4943353;28;88971;-31
2022/10/29 08:30:09;;;;;;;18.20;16.02;;;13.00;99.90;;;;;;4943213;28;90418;-34
2022/10/29 08:32:35;;;;;;;21.40;16.83;;;13.00;99.90;;;;;;4943756;28;90826;-31
2022/10/29 08:35:01;;;;;;;26.23;17.30;;;13.00;99.90;;;;;;4942216;28;87704;-32
2022/10/29 08:37:27;;;;;;;21.55;15.32;;;13.10;99.90;;;;;;4942222;28;89571;-33
2022/10/29 08:39:52;;;;;;;25.33;18.02;;;13.20;99.90;;;;;;4943174;28;88973;-33
2022/10/29 08:42:24;;;;;;;27.13;17.52;;;13.30;99.90;;;;;;4942868;28;89529;-32
2022/10/29 08:44:59;;;;;;;22.08;17.02;;;13.30;99.90;;;;;;4942820;28;88009;-31
2022/10/29 08:47:25;;;;;;;26.90;16.27;;;13.30;99.90;;;;;;4942938;28;88747;-32
2022/10/29 08:50:09;;;;;;;21.00;18.30;;;13.40;99.90;;;;;;4942995;28;90520;-30
2022/10/29 08:52:39;;;;;;;28.10;20.05;;;13.50;99.90;;;;;;4942528;28;89796;-31
2022/10/29 08:55:20;;;;;;;25.17;19.60;;;13.60;99.90;;;;;;4942922;28;89849;-32
2022/10/29 08:57:55;;;;;;;28.67;18.05;;;13.70;99.90;;;;;;4942882;28;87836;-32
2022/10/29 09:00:25;;;;;;;23.58;17.08;;;13.80;99.90;;;;;;4942554;28;89888;-32
2022/10/29 09:02:59;;;;;;;29.02;18.88;;;14.00;99.90;;;;;;4945224;28;89563;-31
2022/10/29 09:05:31;;;;;;;26.80;19.17;;;14.10;99.90;;;;;;4946727;28;90304;-34
2022/10/29 09:08:15;;;;;;;25.30;18.42;;;14.30;99.90;;;;;;4943153;28;87605;-32
2022/10/29 09:10:55;;;;;;;28.13;16.38;;;14.50;99.90;;;;;;4941970;28;90319;-32
2022/10/29 09:13:39;;;;;;;20.98;18.27;;;14.60;99.90;;;;;;4942107;28;89743;-32
2022/10/29 09:16:15;;;;;;;28.42;18.08;;;14.70;99.90;;;;;;4941619;28;89456;-34
2022/10/29 09:19:04;;;;;;;27.70;18.77;;;14.90;99.90;;;;;;4941946;28;89532;-31
2022/10/29 09:21:35;;;;;;;24.75;18.27;;;15.00;99.90;;;;;;4940924;28;90111;-30
2022/10/29 09:24:20;;;;;;;26.80;18.88;;;15.10;99.90;;;;;;4940408;28;90898;-34
2022/10/29 09:27:32;;;;;;;25.25;17.25;;;15.20;99.90;;;;;;4939291;28;89887;-30
2022/10/29 09:30:03;;;;;;;30.95;19.38;;;15.40;99.90;;;;;;4919025;28;89708;-36
2022/10/29 09:32:43;;;;;;;23.75;14.93;;;15.50;99.90;;;;;;4941387;28;90004;-32
2022/10/29 09:35:17;;;;;;;22.90;17.30;;;15.60;99.90;;;;;;4940779;28;89538;-33
2022/10/29 09:37:54;;;;;;;29.58;16.88;;;15.80;99.90;;;;;;4939944;28;89236;-33
2022/10/29 09:40:33;;;;;;;21.55;15.23;;;15.90;99.90;;;;;;4938870;28;88521;-31
2022/10/29 09:43:11;;;;;;;21.98;14.35;;;16.00;99.90;;;;;;4938524;28;90260;-30
2022/10/29 09:45:48;;;;;;;26.33;15.85;;;16.00;99.90;;;;;;4939417;28;89499;-33
2022/10/29 09:48:26;;;;;;;25.40;14.18;;;16.20;99.90;;;;;;4938306;28;89287;-31
2022/10/29 09:51:29;;;;;;;28.00;15.23;;;16.20;99.90;;;;;;4937668;28;89282;-30
2022/10/29 09:53:54;;;;;;;25.85;13.07;;;16.30;99.90;;;;;;4939008;28;89935;-31
2022/10/29 09:56:20;;;;;;;17.00;13.20;;;16.40;99.90;;;;;;4938284;28;89423;-32
2022/10/29 09:58:56;;;;;;;17.98;13.05;;;16.40;99.90;;;;;;4938545;28;89566;-32
2022/10/29 10:01:21;;;;;;;15.00;11.55;;;16.50;99.90;;;;;;4937793;28;88433;-30
2022/10/29 10:03:54;;;;;;;15.18;11.63;;;16.50;99.90;;;;;;4937515;28;90132;-31
2022/10/29 10:06:20;;;;;;;16.40;12.20;;;16.50;99.90;;;;;;4937576;28;90963;-34
2022/10/29 10:08:54;;;;;;;19.27;12.57;;;16.60;99.90;;;;;;4937435;28;87830;-32
2022/10/29 10:11:20;;;;;;;20.55;13.93;;;16.70;99.90;;;;;;4935496;28;88661;-34
2022/10/29 10:13:52;;;;;;;33.38;12.70;;;16.80;99.90;;;;;;4937512;28;90566;-32
2022/10/29 10:16:26;;;;;;;22.52;13.13;;;16.90;99.90;;;;;;4935851;28;91041;-33
2022/10/29 10:18:51;;;;;;;24.48;13.48;;;16.90;99.90;;;;;;4937358;28;90140;-35
2022/10/29 10:21:29;;;;;;;18.35;11.88;;;17.00;99.90;;;;;;4938243;28;88350;-31
2022/10/29 10:23:56;;;;;;;20.63;12.80;;;17.10;99.90;;;;;;4938249;28;91206;-33
2022/10/29 10:26:42;;;;;;;16.08;11.10;;;17.20;99.90;;;;;;4938342;28;90183;-33
2022/10/29 10:29:18;;;;;;;18.30;10.13;;;17.20;99.90;;;;;;4938499;28;88827;-33
2022/10/29 10:31:49;;;;;;;14.13;10.82;;;17.20;99.90;;;;;;4937399;28;89434;-34
2022/10/29 10:34:34;;;;;;;17.23;11.27;;;17.30;99.90;;;;;;4938704;28;92105;-31
2022/10/29 10:37:10;;;;;;;16.00;9.98;;;17.40;99.90;;;;;;4926975;28;90808;-32
2022/10/29 10:39:38;;;;;;;17.08;11.00;;;17.40;99.90;;;;;;4937975;28;89290;-35
2022/10/29 10:42:25;;;;;;;17.98;12.00;;;17.50;99.90;;;;;;4937295;28;88734;-33
2022/10/29 10:45:04;;;;;;;16.65;10.35;;;17.60;99.90;;;;;;4936935;28;91202;-32
2022/10/29 10:47:34;;;;;;;20.50;12.68;;;17.70;99.90;;;;;;4937904;28;89701;-30
2022/10/29 10:50:30;;;;;;;19.67;13.13;;;17.80;99.90;;;;;;4936014;28;89793;-34
2022/10/29 10:53:03;;;;;;;14.48;10.95;;;17.80;99.90;;;;;;4936560;28;88249;-32
2022/10/29 10:55:37;;;;;;;15.02;11.30;;;17.90;99.90;;;;;;4935805;28;90844;-31
2022/10/29 10:58:13;;;;;;;20.83;11.35;;;18.00;99.90;;;;;;4936977;28;90880;-32
2022/10/29 11:00:48;;;;;;;19.40;11.07;;;18.00;99.90;;;;;;4937294;28;90098;-31
2022/10/29 11:03:26;;;;;;;16.73;13.45;;;18.10;99.90;;;;;;4938708;28;88314;-31
2022/10/29 11:06:21;;;;;;;15.98;12.07;;;18.00;99.90;;;;;;4936868;28;90220;-33
2022/10/29 11:09:14;;;;;;;12.38;10.63;;;18.10;99.90;;;;;;4936024;28;90738;-29
2022/10/29 11:11:48;;;;;;;15.38;12.57;;;18.10;99.90;;;;;;4937023;28;90595;-33
2022/10/29 11:14:25;;;;;;;17.70;11.75;;;18.10;99.90;;;;;;4937540;28;87717;-31
2022/10/29 11:17:02;;;;;;;15.82;12.57;;;18.10;99.90;;;;;;4937536;28;89493;-35
2022/10/29 11:19:37;;;;;;;18.25;12.82;;;18.10;99.90;;;;;;4937081;28;90167;-32
2022/10/29 11:22:32;;;;;;;17.70;13.02;;;18.10;99.90;;;;;;4936861;28;89213;-34
2022/10/29 11:25:12;;;;;;;18.13;13.15;;;18.10;99.90;;;;;;4936670;28;89687;-33
2022/10/29 11:27:57;;;;;;;26.33;14.02;;;18.10;99.90;;;;;;4934995;28;90166;-32
2022/10/29 11:30:23;;;;;;;14.80;13.05;;;18.10;99.90;;;;;;4936641;28;90394;-31
2022/10/29 11:33:14;;;;;;;22.48;13.23;;;18.10;99.90;;;;;;4936229;28;89209;-32
2022/10/29 11:36:03;;;;;;;24.27;16.50;;;18.10;99.90;;;;;;4928526;28;88370;-35
2022/10/29 11:38:36;;;;;;;29.45;13.95;;;18.10;99.90;;;;;;4936748;28;90412;-32
2022/10/29 11:41:21;;;;;;;20.30;14.57;;;18.20;99.90;;;;;;4936275;28;89644;-32
2022/10/29 11:43:46;;;;;;;27.70;13.80;;;18.30;99.90;;;;;;4936238;28;89629;-33
2022/10/29 11:46:38;;;;;;;22.08;13.57;;;18.40;99.90;;;;;;4936721;28;89779;-33
2022/10/29 11:49:21;;;;;;;23.98;17.10;;;18.50;99.90;;;;;;4937506;28;90231;-33
2022/10/29 11:52:11;;;;;;;26.40;14.00;;;18.60;99.90;;;;;;4936363;28;90152;-32
2022/10/29 11:54:55;;;;;;;16.95;14.75;;;18.60;99.90;;;;;;4936583;28;89879;-34
2022/10/29 11:57:43;;;;;;;18.27;14.27;;;18.60;99.90;;;;;;4936994;28;88229;-32
2022/10/29 12:00:18;;;;;;;21.00;15.30;;;18.70;99.90;;;;;;4937011;28;90358;-33
2022/10/29 12:03:03;;;;;;;23.30;15.52;;;18.70;99.90;;;;;;4936054;28;90663;-33
2022/10/29 12:05:43;;;;;;;22.15;13.73;;;18.90;99.90;;;;;;4933865;28;89260;-33
2022/10/29 12:08:24;;;;;;;19.70;13.43;;;19.00;99.90;;;;;;4937187;28;88435;-32
2022/10/29 12:11:11;;;;;;;23.67;16.25;;;19.20;99.90;;;;;;4935906;28;89829;-31
2022/10/29 12:13:43;;;;;;;22.95;14.95;;;19.30;99.90;;;;;;4936724;28;91025;-31
2022/10/29 12:16:40;;;;;;;21.13;14.43;;;19.40;99.90;;;;;;4935408;28;88625;-33
2022/10/29 12:19:32;;;;;;;29.27;15.48;;;19.60;99.90;;;;;;4936940;28;89488;-32
2022/10/29 12:21:57;;;;;;;23.58;14.25;;;19.80;99.90;;;;;;4937014;28;90576;-31
2022/10/29 12:24:32;;;;;;;23.73;15.02;;;19.80;99.90;;;;;;4936368;28;89788;-32
2022/10/29 12:27:02;;;;;;;24.75;14.88;;;19.80;99.90;;;;;;4936597;28;88566;-32
2022/10/29 12:29:42;;;;;;;22.77;13.35;;;19.70;99.90;;;;;;4936977;28;90216;-32
2022/10/29 12:32:24;;;;;;;28.77;15.00;;;19.60;99.90;;;;;;4935965;28;89887;-35
2022/10/29 12:35:04;;;;;;;19.77;12.73;;;19.50;99.90;;;;;;4935445;28;89311;-32
2022/10/29 12:37:57;;;;;;;19.33;14.05;;;19.60;99.90;;;;;;4927964;28;89694;-31
2022/10/29 12:40:27;;;;;;;19.23;12.55;;;19.70;99.90;;;;;;4934551;28;88034;-34
2022/10/29 12:42:54;;;;;;;15.95;11.98;;;19.70;99.90;;;;;;4936576;28;90411;-31
2022/10/29 12:45:22;;;;;;;22.20;14.55;;;19.70;99.90;;;;;;4937255;28;90282;-32
2022/10/29 12:48:07;;;;;;;20.48;12.68;;;19.70;99.90;;;;;;4937250;28;90023;-30
2022/10/29 12:50:53;;;;;;;19.95;13.48;;;19.60;99.90;;;;;;4937860;28;88310;-31